Search for airport 
image banner adimage banner adimage banner ad
image banner ad

4CA1 - City National Bank

Located in Los Angeles, United States

ICAO - 4CA1, IATA -

Data provided by Airmate  

General information

Coordinates: N34°2'52" W118°15'15"
Elevation is 453 feet MSL.
Magnetic variation is 14° East
View others Airports in California

Operational data

Special qualification required
Current time UTC:
Current local time:
METAR: KHHR 221253Z AUTO 20003KT 10SM FEW010 16/13 A2993 RMK AO2 SLP135 T01560128
View NOTAMs / SUP AIP / TFR affecting this airport [VIEW]
Communications frequencies: [VIEW]

Runways:

Airport contact information

Address: Los Angeles United States

Satellite view of 4CA1